sensor_id;sensor_type;location;lat;lon;timestamp;P1;durP1;ratioP1;P2;durP2;ratioP2
62543;SDS011;48597;49.030;1.822;2023-03-12T00:00:13;0.68;;;0.68;;
62543;SDS011;48597;49.030;1.822;2023-03-12T00:02:41;1.17;;;0.80;;
62543;SDS011;48597;49.030;1.822;2023-03-12T00:05:06;0.80;;;0.80;;
62543;SDS011;48597;49.030;1.822;2023-03-12T00:07:31;1.00;;;0.90;;
62543;SDS011;48597;49.030;1.822;2023-03-12T00:09:57;0.80;;;0.80;;
62543;SDS011;48597;49.030;1.822;2023-03-12T00:12:22;0.85;;;0.80;;
62543;SDS011;48597;49.030;1.822;2023-03-12T00:14:48;0.70;;;0.70;;
62543;SDS011;48597;49.030;1.822;2023-03-12T00:17:13;0.70;;;0.70;;
62543;SDS011;48597;49.030;1.822;2023-03-12T00:19:38;1.75;;;0.77;;
62543;SDS011;48597;49.030;1.822;2023-03-12T00:22:04;0.75;;;0.75;;
62543;SDS011;48597;49.030;1.822;2023-03-12T00:24:29;0.60;;;0.60;;
62543;SDS011;48597;49.030;1.822;2023-03-12T00:26:55;1.58;;;0.80;;
62543;SDS011;48597;49.030;1.822;2023-03-12T00:29:20;1.05;;;0.70;;
62543;SDS011;48597;49.030;1.822;2023-03-12T00:31:45;1.92;;;0.80;;
62543;SDS011;48597;49.030;1.822;2023-03-12T00:34:11;0.85;;;0.60;;
62543;SDS011;48597;49.030;1.822;2023-03-12T00:36:37;1.25;;;0.77;;
62543;SDS011;48597;49.030;1.822;2023-03-12T00:39:04;1.63;;;0.90;;
62543;SDS011;48597;49.030;1.822;2023-03-12T00:41:30;0.75;;;0.70;;
62543;SDS011;48597;49.030;1.822;2023-03-12T00:43:55;0.80;;;0.80;;
62543;SDS011;48597;49.030;1.822;2023-03-12T00:46:21;0.73;;;0.65;;
62543;SDS011;48597;49.030;1.822;2023-03-12T00:48:46;1.00;;;0.85;;
62543;SDS011;48597;49.030;1.822;2023-03-12T00:51:12;0.82;;;0.70;;
62543;SDS011;48597;49.030;1.822;2023-03-12T00:53:38;0.80;;;0.70;;
62543;SDS011;48597;49.030;1.822;2023-03-12T00:56:03;0.80;;;0.80;;
62543;SDS011;48597;49.030;1.822;2023-03-12T00:58:30;1.17;;;1.13;;
62543;SDS011;48597;49.030;1.822;2023-03-12T01:00:55;0.70;;;0.70;;
62543;SDS011;48597;49.030;1.822;2023-03-12T01:03:21;1.20;;;0.70;;
62543;SDS011;48597;49.030;1.822;2023-03-12T01:05:46;1.45;;;0.70;;
62543;SDS011;48597;49.030;1.822;2023-03-12T01:08:17;1.20;;;1.00;;
62543;SDS011;48597;49.030;1.822;2023-03-12T01:10:44;1.25;;;0.70;;
62543;SDS011;48597;49.030;1.822;2023-03-12T01:13:09;0.70;;;0.70;;
62543;SDS011;48597;49.030;1.822;2023-03-12T01:15:34;0.75;;;0.70;;
62543;SDS011;48597;49.030;1.822;2023-03-12T01:18:00;0.63;;;0.60;;
62543;SDS011;48597;49.030;1.822;2023-03-12T01:20:25;0.65;;;0.63;;
62543;SDS011;48597;49.030;1.822;2023-03-12T01:22:51;0.60;;;0.60;;
62543;SDS011;48597;49.030;1.822;2023-03-12T01:25:17;1.25;;;0.80;;
62543;SDS011;48597;49.030;1.822;2023-03-12T01:27:43;0.65;;;0.63;;
62543;SDS011;48597;49.030;1.822;2023-03-12T01:30:09;0.70;;;0.70;;
62543;SDS011;48597;49.030;1.822;2023-03-12T01:32:35;0.70;;;0.70;;
62543;SDS011;48597;49.030;1.822;2023-03-12T01:35:01;0.70;;;0.60;;
62543;SDS011;48597;49.030;1.822;2023-03-12T01:37:26;0.60;;;0.60;;
62543;SDS011;48597;49.030;1.822;2023-03-12T01:39:52;1.05;;;0.63;;
62543;SDS011;48597;49.030;1.822;2023-03-12T01:42:18;0.60;;;0.60;;
62543;SDS011;48597;49.030;1.822;2023-03-12T01:45:02;0.73;;;0.60;;
62543;SDS011;48597;49.030;1.822;2023-03-12T01:47:28;0.90;;;0.68;;
62543;SDS011;48597;49.030;1.822;2023-03-12T01:49:58;1.00;;;0.82;;
62543;SDS011;48597;49.030;1.822;2023-03-12T01:52:29;1.10;;;0.70;;
62543;SDS011;48597;49.030;1.822;2023-03-12T01:55:02;0.60;;;0.60;;
62543;SDS011;48597;49.030;1.822;2023-03-12T01:57:43;0.60;;;0.60;;
62543;SDS011;48597;49.030;1.822;2023-03-12T02:00:23;1.17;;;0.70;;
62543;SDS011;48597;49.030;1.822;2023-03-12T02:02:50;0.80;;;0.80;;
62543;SDS011;48597;49.030;1.822;2023-03-12T02:05:23;0.60;;;0.60;;
62543;SDS011;48597;49.030;1.822;2023-03-12T02:07:52;0.60;;;0.60;;
62543;SDS011;48597;49.030;1.822;2023-03-12T02:10:19;0.93;;;0.82;;
62543;SDS011;48597;49.030;1.822;2023-03-12T02:12:45;1.13;;;0.75;;
62543;SDS011;48597;49.030;1.822;2023-03-12T02:15:10;0.70;;;0.70;;
62543;SDS011;48597;49.030;1.822;2023-03-12T02:17:36;0.60;;;0.60;;
62543;SDS011;48597;49.030;1.822;2023-03-12T02:22:48;0.98;;;0.70;;
62543;SDS011;48597;49.030;1.822;2023-03-12T02:25:34;0.98;;;0.88;;
62543;SDS011;48597;49.030;1.822;2023-03-12T02:28:04;0.57;;;0.57;;
62543;SDS011;48597;49.030;1.822;2023-03-12T02:30:33;0.95;;;0.65;;
62543;SDS011;48597;49.030;1.822;2023-03-12T02:33:00;0.98;;;0.63;;
62543;SDS011;48597;49.030;1.822;2023-03-12T02:35:29;0.73;;;0.68;;
62543;SDS011;48597;49.030;1.822;2023-03-12T02:37:55;0.80;;;0.70;;
62543;SDS011;48597;49.030;1.822;2023-03-12T02:40:33;0.80;;;0.60;;
62543;SDS011;48597;49.030;1.822;2023-03-12T02:43:01;0.80;;;0.70;;
62543;SDS011;48597;49.030;1.822;2023-03-12T02:45:29;0.77;;;0.70;;
62543;SDS011;48597;49.030;1.822;2023-03-12T02:47:55;0.82;;;0.80;;
62543;SDS011;48597;49.030;1.822;2023-03-12T02:50:21;1.20;;;0.75;;
62543;SDS011;48597;49.030;1.822;2023-03-12T02:52:47;1.20;;;0.70;;
62543;SDS011;48597;49.030;1.822;2023-03-12T02:55:12;0.70;;;0.63;;
62543;SDS011;48597;49.030;1.822;2023-03-12T02:57:37;0.88;;;0.70;;
62543;SDS011;48597;49.030;1.822;2023-03-12T03:00:07;0.57;;;0.52;;
62543;SDS011;48597;49.030;1.822;2023-03-12T03:02:36;1.00;;;0.70;;
62543;SDS011;48597;49.030;1.822;2023-03-12T03:05:03;1.17;;;0.50;;
62543;SDS011;48597;49.030;1.822;2023-03-12T03:07:29;0.88;;;0.80;;
62543;SDS011;48597;49.030;1.822;2023-03-12T03:09:54;0.75;;;0.60;;
62543;SDS011;48597;49.030;1.822;2023-03-12T03:12:20;1.00;;;0.68;;
62543;SDS011;48597;49.030;1.822;2023-03-12T03:14:46;0.85;;;0.60;;
62543;SDS011;48597;49.030;1.822;2023-03-12T03:17:12;0.60;;;0.60;;
62543;SDS011;48597;49.030;1.822;2023-03-12T03:19:37;1.23;;;0.70;;
62543;SDS011;48597;49.030;1.822;2023-03-12T03:22:03;1.35;;;0.80;;
62543;SDS011;48597;49.030;1.822;2023-03-12T03:24:29;0.70;;;0.57;;
62543;SDS011;48597;49.030;1.822;2023-03-12T03:26:54;0.80;;;0.70;;
62543;SDS011;48597;49.030;1.822;2023-03-12T03:29:20;0.82;;;0.65;;
62543;SDS011;48597;49.030;1.822;2023-03-12T03:31:45;0.60;;;0.60;;
62543;SDS011;48597;49.030;1.822;2023-03-12T03:34:10;1.90;;;0.75;;
62543;SDS011;48597;49.030;1.822;2023-03-12T03:36:36;0.85;;;0.60;;
62543;SDS011;48597;49.030;1.822;2023-03-12T03:39:02;0.98;;;0.60;;
62543;SDS011;48597;49.030;1.822;2023-03-12T03:41:29;1.27;;;0.68;;
62543;SDS011;48597;49.030;1.822;2023-03-12T03:43:56;0.73;;;0.70;;
62543;SDS011;48597;49.030;1.822;2023-03-12T03:46:22;0.63;;;0.60;;
62543;SDS011;48597;49.030;1.822;2023-03-12T03:48:48;0.88;;;0.70;;
62543;SDS011;48597;49.030;1.822;2023-03-12T03:51:15;1.02;;;0.80;;
62543;SDS011;48597;49.030;1.822;2023-03-12T03:53:40;1.05;;;0.60;;
62543;SDS011;48597;49.030;1.822;2023-03-12T03:56:06;1.35;;;0.90;;
62543;SDS011;48597;49.030;1.822;2023-03-12T03:58:40;0.82;;;0.63;;
62543;SDS011;48597;49.030;1.822;2023-03-12T04:01:06;1.02;;;0.80;;
62543;SDS011;48597;49.030;1.822;2023-03-12T04:03:32;1.20;;;0.63;;
62543;SDS011;48597;49.030;1.822;2023-03-12T04:05:59;0.70;;;0.60;;
62543;SDS011;48597;49.030;1.822;2023-03-12T04:08:25;1.33;;;0.70;;
62543;SDS011;48597;49.030;1.822;2023-03-12T04:10:52;1.25;;;0.75;;
62543;SDS011;48597;49.030;1.822;2023-03-12T04:13:18;0.80;;;0.60;;
62543;SDS011;48597;49.030;1.822;2023-03-12T04:15:48;1.48;;;0.80;;
62543;SDS011;48597;49.030;1.822;2023-03-12T04:18:15;0.60;;;0.60;;
62543;SDS011;48597;49.030;1.822;2023-03-12T04:20:41;1.73;;;0.68;;
62543;SDS011;48597;49.030;1.822;2023-03-12T04:23:07;0.65;;;0.60;;
62543;SDS011;48597;49.030;1.822;2023-03-12T04:25:32;1.25;;;0.70;;
62543;SDS011;48597;49.030;1.822;2023-03-12T04:27:58;0.80;;;0.70;;
62543;SDS011;48597;49.030;1.822;2023-03-12T04:30:23;0.68;;;0.60;;
62543;SDS011;48597;49.030;1.822;2023-03-12T04:32:49;1.40;;;0.68;;
62543;SDS011;48597;49.030;1.822;2023-03-12T04:35:14;0.95;;;0.70;;
62543;SDS011;48597;49.030;1.822;2023-03-12T04:37:40;1.13;;;0.60;;
62543;SDS011;48597;49.030;1.822;2023-03-12T04:40:05;1.50;;;0.75;;
62543;SDS011;48597;49.030;1.822;2023-03-12T04:42:35;0.80;;;0.70;;
62543;SDS011;48597;49.030;1.822;2023-03-12T04:45:01;0.68;;;0.57;;
62543;SDS011;48597;49.030;1.822;2023-03-12T04:47:29;1.20;;;1.00;;
62543;SDS011;48597;49.030;1.822;2023-03-12T04:49:55;1.35;;;0.75;;
62543;SDS011;48597;49.030;1.822;2023-03-12T04:52:20;0.73;;;0.65;;
62543;SDS011;48597;49.030;1.822;2023-03-12T04:54:46;1.48;;;0.75;;
62543;SDS011;48597;49.030;1.822;2023-03-12T04:57:11;1.10;;;0.70;;
62543;SDS011;48597;49.030;1.822;2023-03-12T04:59:36;1.42;;;0.80;;
62543;SDS011;48597;49.030;1.822;2023-03-12T05:02:02;1.63;;;0.70;;
62543;SDS011;48597;49.030;1.822;2023-03-12T05:04:27;0.60;;;0.60;;
62543;SDS011;48597;49.030;1.822;2023-03-12T05:06:53;1.10;;;0.63;;
62543;SDS011;48597;49.030;1.822;2023-03-12T05:09:19;0.98;;;0.70;;
62543;SDS011;48597;49.030;1.822;2023-03-12T05:11:45;0.95;;;0.68;;
62543;SDS011;48597;49.030;1.822;2023-03-12T05:14:10;0.75;;;0.60;;
62543;SDS011;48597;49.030;1.822;2023-03-12T05:16:36;1.20;;;0.75;;
62543;SDS011;48597;49.030;1.822;2023-03-12T05:19:02;0.70;;;0.60;;
62543;SDS011;48597;49.030;1.822;2023-03-12T05:21:28;1.30;;;0.75;;
62543;SDS011;48597;49.030;1.822;2023-03-12T05:23:54;0.60;;;0.60;;
62543;SDS011;48597;49.030;1.822;2023-03-12T05:26:21;1.15;;;0.77;;
62543;SDS011;48597;49.030;1.822;2023-03-12T05:28:48;1.13;;;0.70;;
62543;SDS011;48597;49.030;1.822;2023-03-12T05:31:14;0.98;;;0.60;;
62543;SDS011;48597;49.030;1.822;2023-03-12T05:33:40;1.25;;;0.77;;
62543;SDS011;48597;49.030;1.822;2023-03-12T05:36:06;1.35;;;0.73;;
62543;SDS011;48597;49.030;1.822;2023-03-12T05:38:32;0.95;;;0.80;;
62543;SDS011;48597;49.030;1.822;2023-03-12T05:40:58;0.88;;;0.60;;
62543;SDS011;48597;49.030;1.822;2023-03-12T05:43:24;1.50;;;0.82;;
62543;SDS011;48597;49.030;1.822;2023-03-12T05:45:51;1.60;;;0.90;;
62543;SDS011;48597;49.030;1.822;2023-03-12T05:48:17;1.58;;;0.85;;
62543;SDS011;48597;49.030;1.822;2023-03-12T05:50:43;1.50;;;0.85;;
62543;SDS011;48597;49.030;1.822;2023-03-12T05:53:09;1.00;;;0.50;;
62543;SDS011;48597;49.030;1.822;2023-03-12T05:55:35;0.63;;;0.60;;
62543;SDS011;48597;49.030;1.822;2023-03-12T05:58:03;1.42;;;0.88;;
62543;SDS011;48597;49.030;1.822;2023-03-12T06:00:30;1.02;;;0.65;;
62543;SDS011;48597;49.030;1.822;2023-03-12T06:02:57;1.52;;;0.75;;
62543;SDS011;48597;49.030;1.822;2023-03-12T06:05:22;1.42;;;0.63;;
62543;SDS011;48597;49.030;1.822;2023-03-12T06:07:48;1.27;;;0.80;;
62543;SDS011;48597;49.030;1.822;2023-03-12T06:10:13;1.17;;;0.73;;
62543;SDS011;48597;49.030;1.822;2023-03-12T06:12:38;1.98;;;0.82;;
62543;SDS011;48597;49.030;1.822;2023-03-12T06:15:04;1.23;;;0.70;;
62543;SDS011;48597;49.030;1.822;2023-03-12T06:17:30;1.70;;;0.80;;
62543;SDS011;48597;49.030;1.822;2023-03-12T06:19:56;0.95;;;0.68;;
62543;SDS011;48597;49.030;1.822;2023-03-12T06:22:21;0.70;;;0.60;;
62543;SDS011;48597;49.030;1.822;2023-03-12T06:24:47;2.33;;;1.02;;
62543;SDS011;48597;49.030;1.822;2023-03-12T06:27:13;2.17;;;0.77;;
62543;SDS011;48597;49.030;1.822;2023-03-12T06:29:39;2.17;;;0.80;;
62543;SDS011;48597;49.030;1.822;2023-03-12T06:32:05;1.98;;;1.02;;
62543;SDS011;48597;49.030;1.822;2023-03-12T06:34:31;0.77;;;0.60;;
62543;SDS011;48597;49.030;1.822;2023-03-12T06:36:56;1.67;;;0.73;;
62543;SDS011;48597;49.030;1.822;2023-03-12T06:39:21;1.73;;;0.70;;
62543;SDS011;48597;49.030;1.822;2023-03-12T06:41:47;1.98;;;1.00;;
62543;SDS011;48597;49.030;1.822;2023-03-12T06:44:12;1.75;;;0.90;;
62543;SDS011;48597;49.030;1.822;2023-03-12T06:46:38;1.67;;;0.90;;
62543;SDS011;48597;49.030;1.822;2023-03-12T06:49:03;1.17;;;0.85;;
62543;SDS011;48597;49.030;1.822;2023-03-12T06:51:28;1.88;;;0.88;;
62543;SDS011;48597;49.030;1.822;2023-03-12T06:53:54;1.55;;;0.70;;
62543;SDS011;48597;49.030;1.822;2023-03-12T06:56:19;1.42;;;0.70;;
62543;SDS011;48597;49.030;1.822;2023-03-12T06:58:45;1.25;;;0.90;;
62543;SDS011;48597;49.030;1.822;2023-03-12T07:01:10;1.88;;;0.90;;
62543;SDS011;48597;49.030;1.822;2023-03-12T07:03:35;1.58;;;0.80;;
62543;SDS011;48597;49.030;1.822;2023-03-12T07:06:01;2.35;;;0.90;;
62543;SDS011;48597;49.030;1.822;2023-03-12T07:08:26;3.00;;;1.00;;
62543;SDS011;48597;49.030;1.822;2023-03-12T07:10:55;0.95;;;0.60;;
62543;SDS011;48597;49.030;1.822;2023-03-12T07:13:21;1.20;;;0.70;;
62543;SDS011;48597;49.030;1.822;2023-03-12T07:15:47;1.30;;;0.77;;
62543;SDS011;48597;49.030;1.822;2023-03-12T07:18:12;1.75;;;0.88;;
62543;SDS011;48597;49.030;1.822;2023-03-12T07:20:38;1.10;;;0.75;;
62543;SDS011;48597;49.030;1.822;2023-03-12T07:23:06;1.63;;;0.77;;
62543;SDS011;48597;49.030;1.822;2023-03-12T07:25:35;1.33;;;0.70;;
62543;SDS011;48597;49.030;1.822;2023-03-12T07:28:02;2.45;;;0.80;;
62543;SDS011;48597;49.030;1.822;2023-03-12T07:30:28;1.20;;;0.80;;
62543;SDS011;48597;49.030;1.822;2023-03-12T07:32:57;1.92;;;0.90;;
62543;SDS011;48597;49.030;1.822;2023-03-12T07:35:26;1.40;;;0.70;;
62543;SDS011;48597;49.030;1.822;2023-03-12T07:37:52;0.88;;;0.70;;
62543;SDS011;48597;49.030;1.822;2023-03-12T07:40:18;1.52;;;0.70;;
62543;SDS011;48597;49.030;1.822;2023-03-12T07:42:43;1.77;;;0.80;;
62543;SDS011;48597;49.030;1.822;2023-03-12T07:45:08;2.22;;;0.90;;
62543;SDS011;48597;49.030;1.822;2023-03-12T07:47:34;1.85;;;0.75;;
62543;SDS011;48597;49.030;1.822;2023-03-12T07:49:59;1.73;;;0.90;;
62543;SDS011;48597;49.030;1.822;2023-03-12T07:52:25;2.13;;;1.00;;
62543;SDS011;48597;49.030;1.822;2023-03-12T07:54:51;2.60;;;0.70;;
62543;SDS011;48597;49.030;1.822;2023-03-12T07:57:18;1.55;;;0.70;;
62543;SDS011;48597;49.030;1.822;2023-03-12T07:59:43;1.70;;;0.70;;
62543;SDS011;48597;49.030;1.822;2023-03-12T08:02:10;1.42;;;0.70;;
62543;SDS011;48597;49.030;1.822;2023-03-12T08:04:35;1.48;;;0.75;;
62543;SDS011;48597;49.030;1.822;2023-03-12T08:07:01;1.23;;;0.75;;
62543;SDS011;48597;49.030;1.822;2023-03-12T08:09:26;1.73;;;0.80;;
62543;SDS011;48597;49.030;1.822;2023-03-12T08:11:53;2.33;;;1.10;;
62543;SDS011;48597;49.030;1.822;2023-03-12T08:14:18;4.95;;;1.20;;
62543;SDS011;48597;49.030;1.822;2023-03-12T08:16:44;7.78;;;1.15;;
62543;SDS011;48597;49.030;1.822;2023-03-12T08:19:09;6.60;;;1.38;;
62543;SDS011;48597;49.030;1.822;2023-03-12T08:21:34;4.10;;;1.30;;
62543;SDS011;48597;49.030;1.822;2023-03-12T08:24:00;5.47;;;1.17;;
62543;SDS011;48597;49.030;1.822;2023-03-12T08:26:25;4.65;;;0.88;;
62543;SDS011;48597;49.030;1.822;2023-03-12T08:28:50;4.32;;;1.10;;
62543;SDS011;48597;49.030;1.822;2023-03-12T08:31:16;1.80;;;0.88;;
62543;SDS011;48597;49.030;1.822;2023-03-12T08:33:41;5.28;;;1.02;;
62543;SDS011;48597;49.030;1.822;2023-03-12T08:36:08;3.13;;;0.90;;
62543;SDS011;48597;49.030;1.822;2023-03-12T08:38:34;1.52;;;0.90;;
62543;SDS011;48597;49.030;1.822;2023-03-12T08:41:00;2.33;;;1.00;;
62543;SDS011;48597;49.030;1.822;2023-03-12T08:43:26;2.72;;;1.00;;
62543;SDS011;48597;49.030;1.822;2023-03-12T08:46:01;2.42;;;0.80;;
62543;SDS011;48597;49.030;1.822;2023-03-12T08:48:28;3.33;;;1.10;;
62543;SDS011;48597;49.030;1.822;2023-03-12T08:50:55;3.83;;;1.00;;
62543;SDS011;48597;49.030;1.822;2023-03-12T08:53:22;2.33;;;1.05;;
62543;SDS011;48597;49.030;1.822;2023-03-12T08:55:47;2.30;;;0.90;;
62543;SDS011;48597;49.030;1.822;2023-03-12T08:58:13;1.50;;;0.80;;
62543;SDS011;48597;49.030;1.822;2023-03-12T09:00:38;2.55;;;1.10;;
62543;SDS011;48597;49.030;1.822;2023-03-12T09:03:04;4.60;;;1.30;;
62543;SDS011;48597;49.030;1.822;2023-03-12T09:05:29;3.38;;;1.20;;
62543;SDS011;48597;49.030;1.822;2023-03-12T09:07:55;6.03;;;1.20;;
62543;SDS011;48597;49.030;1.822;2023-03-12T09:10:21;2.08;;;0.90;;
62543;SDS011;48597;49.030;1.822;2023-03-12T09:12:47;2.00;;;1.05;;
62543;SDS011;48597;49.030;1.822;2023-03-12T09:15:12;3.17;;;0.88;;
62543;SDS011;48597;49.030;1.822;2023-03-12T09:17:38;3.85;;;1.15;;
62543;SDS011;48597;49.030;1.822;2023-03-12T09:20:04;3.65;;;1.50;;
62543;SDS011;48597;49.030;1.822;2023-03-12T09:22:34;4.47;;;1.20;;
62543;SDS011;48597;49.030;1.822;2023-03-12T09:25:01;3.15;;;1.33;;
62543;SDS011;48597;49.030;1.822;2023-03-12T09:27:35;4.40;;;1.20;;
62543;SDS011;48597;49.030;1.822;2023-03-12T09:30:01;3.40;;;1.23;;
62543;SDS011;48597;49.030;1.822;2023-03-12T09:32:27;2.15;;;1.10;;
62543;SDS011;48597;49.030;1.822;2023-03-12T09:34:53;4.22;;;1.50;;
62543;SDS011;48597;49.030;1.822;2023-03-12T09:37:18;3.40;;;1.33;;
62543;SDS011;48597;49.030;1.822;2023-03-12T09:39:44;2.78;;;1.20;;
62543;SDS011;48597;49.030;1.822;2023-03-12T09:42:14;2.40;;;0.98;;
62543;SDS011;48597;49.030;1.822;2023-03-12T09:44:47;3.88;;;1.10;;
62543;SDS011;48597;49.030;1.822;2023-03-12T09:47:21;4.63;;;1.17;;
62543;SDS011;48597;49.030;1.822;2023-03-12T09:49:50;4.38;;;1.90;;
62543;SDS011;48597;49.030;1.822;2023-03-12T09:55:07;32.63;;;15.40;;
62543;SDS011;48597;49.030;1.822;2023-03-12T09:57:35;24.60;;;11.65;;
62543;SDS011;48597;49.030;1.822;2023-03-12T10:00:00;21.55;;;11.00;;
62543;SDS011;48597;49.030;1.822;2023-03-12T10:05:30;19.60;;;9.68;;
62543;SDS011;48597;49.030;1.822;2023-03-12T10:08:00;16.75;;;7.65;;
62543;SDS011;48597;49.030;1.822;2023-03-12T10:13:28;13.52;;;6.72;;
62543;SDS011;48597;49.030;1.822;2023-03-12T10:19:08;14.32;;;5.88;;
62543;SDS011;48597;49.030;1.822;2023-03-12T10:21:53;11.25;;;5.63;;
62543;SDS011;48597;49.030;1.822;2023-03-12T10:27:23;8.68;;;4.35;;
62543;SDS011;48597;49.030;1.822;2023-03-12T10:29:53;9.57;;;4.50;;
62543;SDS011;48597;49.030;1.822;2023-03-12T10:32:25;11.20;;;3.55;;
62543;SDS011;48597;49.030;1.822;2023-03-12T10:35:14;5.85;;;3.22;;
62543;SDS011;48597;49.030;1.822;2023-03-12T10:40:28;5.53;;;2.80;;
62543;SDS011;48597;49.030;1.822;2023-03-12T10:42:58;7.40;;;2.63;;
62543;SDS011;48597;49.030;1.822;2023-03-12T10:45:33;5.40;;;3.22;;
62543;SDS011;48597;49.030;1.822;2023-03-12T10:48:05;5.00;;;2.42;;
62543;SDS011;48597;49.030;1.822;2023-03-12T10:50:34;6.35;;;2.15;;
62543;SDS011;48597;49.030;1.822;2023-03-12T10:56:26;5.30;;;2.28;;
62543;SDS011;48597;49.030;1.822;2023-03-12T10:58:49;3.17;;;1.83;;
62543;SDS011;48597;49.030;1.822;2023-03-12T11:01:27;3.40;;;2.05;;
62543;SDS011;48597;49.030;1.822;2023-03-12T11:04:18;3.63;;;1.70;;
62543;SDS011;48597;49.030;1.822;2023-03-12T11:07:03;3.85;;;1.50;;
62543;SDS011;48597;49.030;1.822;2023-03-12T11:09:30;5.90;;;1.85;;
62543;SDS011;48597;49.030;1.822;2023-03-12T11:11:56;4.38;;;1.55;;
62543;SDS011;48597;49.030;1.822;2023-03-12T11:14:23;5.10;;;1.98;;
62543;SDS011;48597;49.030;1.822;2023-03-12T11:16:51;3.20;;;1.55;;
62543;SDS011;48597;49.030;1.822;2023-03-12T11:19:26;6.53;;;1.70;;
62543;SDS011;48597;49.030;1.822;2023-03-12T11:22:00;3.90;;;1.47;;
62543;SDS011;48597;49.030;1.822;2023-03-12T11:24:54;3.25;;;1.30;;
62543;SDS011;48597;49.030;1.822;2023-03-12T11:27:26;3.35;;;1.20;;
62543;SDS011;48597;49.030;1.822;2023-03-12T11:29:59;3.83;;;1.40;;
62543;SDS011;48597;49.030;1.822;2023-03-12T11:32:30;2.20;;;1.15;;
62543;SDS011;48597;49.030;1.822;2023-03-12T11:34:59;3.40;;;1.37;;
62543;SDS011;48597;49.030;1.822;2023-03-12T11:37:29;5.93;;;1.55;;
62543;SDS011;48597;49.030;1.822;2023-03-12T11:45:13;3.95;;;1.27;;
62543;SDS011;48597;49.030;1.822;2023-03-12T11:50:54;3.30;;;1.25;;
62543;SDS011;48597;49.030;1.822;2023-03-12T11:53:46;2.75;;;1.13;;
62543;SDS011;48597;49.030;1.822;2023-03-12T11:58:52;2.67;;;1.25;;
62543;SDS011;48597;49.030;1.822;2023-03-12T12:06:42;2.28;;;1.10;;
62543;SDS011;48597;49.030;1.822;2023-03-12T12:37:39;2.22;;;1.00;;
62543;SDS011;48597;49.030;1.822;2023-03-12T12:39:44;2.75;;;1.05;;
62543;SDS011;48597;49.030;1.822;2023-03-12T12:42:19;4.20;;;1.25;;
62543;SDS011;48597;49.030;1.822;2023-03-12T12:44:50;2.30;;;0.90;;
62543;SDS011;48597;49.030;1.822;2023-03-12T12:47:19;3.13;;;1.27;;
62543;SDS011;48597;49.030;1.822;2023-03-12T12:50:04;2.65;;;1.00;;
62543;SDS011;48597;49.030;1.822;2023-03-12T12:52:30;4.10;;;1.10;;
62543;SDS011;48597;49.030;1.822;2023-03-12T12:57:33;3.15;;;1.10;;
62543;SDS011;48597;49.030;1.822;2023-03-12T13:02:46;5.15;;;1.20;;
62543;SDS011;48597;49.030;1.822;2023-03-12T13:05:26;2.40;;;1.10;;
62543;SDS011;48597;49.030;1.822;2023-03-12T13:08:02;5.28;;;1.20;;
62543;SDS011;48597;49.030;1.822;2023-03-12T13:12:57;3.47;;;1.02;;
62543;SDS011;48597;49.030;1.822;2023-03-12T13:20:58;2.97;;;1.27;;
62543;SDS011;48597;49.030;1.822;2023-03-12T13:23:46;2.15;;;1.17;;
62543;SDS011;48597;49.030;1.822;2023-03-12T13:26:22;3.53;;;1.15;;
62543;SDS011;48597;49.030;1.822;2023-03-12T13:36:51;2.33;;;0.90;;
62543;SDS011;48597;49.030;1.822;2023-03-12T13:39:28;4.22;;;1.00;;
62543;SDS011;48597;49.030;1.822;2023-03-12T13:41:54;2.10;;;1.00;;
62543;SDS011;48597;49.030;1.822;2023-03-12T13:46:46;3.08;;;1.00;;
62543;SDS011;48597;49.030;1.822;2023-03-12T13:49:13;5.07;;;1.10;;
62543;SDS011;48597;49.030;1.822;2023-03-12T13:51:44;3.97;;;1.23;;
62543;SDS011;48597;49.030;1.822;2023-03-12T13:54:17;4.22;;;1.23;;
62543;SDS011;48597;49.030;1.822;2023-03-12T13:56:45;3.90;;;1.20;;
62543;SDS011;48597;49.030;1.822;2023-03-12T13:59:22;3.38;;;1.35;;
62543;SDS011;48597;49.030;1.822;2023-03-12T14:01:52;4.95;;;1.27;;
62543;SDS011;48597;49.030;1.822;2023-03-12T14:04:21;2.25;;;1.08;;
62543;SDS011;48597;49.030;1.822;2023-03-12T14:12:09;3.60;;;1.33;;
62543;SDS011;48597;49.030;1.822;2023-03-12T14:17:31;3.17;;;1.23;;
62543;SDS011;48597;49.030;1.822;2023-03-12T14:20:03;7.00;;;1.20;;
62543;SDS011;48597;49.030;1.822;2023-03-12T14:22:41;1.88;;;1.00;;
62543;SDS011;48597;49.030;1.822;2023-03-12T14:28:01;2.60;;;1.07;;
62543;SDS011;48597;49.030;1.822;2023-03-12T14:30:43;3.00;;;1.38;;
62543;SDS011;48597;49.030;1.822;2023-03-12T14:33:24;1.80;;;0.80;;
62543;SDS011;48597;49.030;1.822;2023-03-12T14:36:14;4.70;;;1.40;;
62543;SDS011;48597;49.030;1.822;2023-03-12T14:38:44;3.75;;;1.10;;
62543;SDS011;48597;49.030;1.822;2023-03-12T14:41:12;3.38;;;1.23;;
62543;SDS011;48597;49.030;1.822;2023-03-12T14:43:42;4.10;;;1.30;;
62543;SDS011;48597;49.030;1.822;2023-03-12T14:46:15;2.95;;;1.23;;
62543;SDS011;48597;49.030;1.822;2023-03-12T14:48:48;2.72;;;1.30;;
62543;SDS011;48597;49.030;1.822;2023-03-12T14:53:49;3.30;;;1.00;;
62543;SDS011;48597;49.030;1.822;2023-03-12T14:56:23;3.67;;;1.30;;
62543;SDS011;48597;49.030;1.822;2023-03-12T14:58:54;5.28;;;1.40;;
62543;SDS011;48597;49.030;1.822;2023-03-12T15:03:54;2.58;;;1.15;;
62543;SDS011;48597;49.030;1.822;2023-03-12T15:06:33;4.50;;;1.30;;
62543;SDS011;48597;49.030;1.822;2023-03-12T15:09:02;3.90;;;1.23;;
62543;SDS011;48597;49.030;1.822;2023-03-12T15:11:31;2.47;;;1.10;;
62543;SDS011;48597;49.030;1.822;2023-03-12T15:14:03;4.97;;;1.38;;
62543;SDS011;48597;49.030;1.822;2023-03-12T15:16:32;5.10;;;1.55;;
62543;SDS011;48597;49.030;1.822;2023-03-12T15:18:58;5.18;;;1.33;;
62543;SDS011;48597;49.030;1.822;2023-03-12T15:21:26;5.20;;;1.10;;
62543;SDS011;48597;49.030;1.822;2023-03-12T15:23:51;2.75;;;1.23;;
62543;SDS011;48597;49.030;1.822;2023-03-12T15:28:59;4.18;;;1.00;;
62543;SDS011;48597;49.030;1.822;2023-03-12T15:31:42;3.28;;;1.17;;
62543;SDS011;48597;49.030;1.822;2023-03-12T15:34:12;5.00;;;1.33;;
62543;SDS011;48597;49.030;1.822;2023-03-12T15:36:51;2.28;;;0.98;;
62543;SDS011;48597;49.030;1.822;2023-03-12T15:41:44;3.78;;;1.08;;
62543;SDS011;48597;49.030;1.822;2023-03-12T15:44:17;4.40;;;1.10;;
62543;SDS011;48597;49.030;1.822;2023-03-12T15:46:46;3.92;;;1.35;;
62543;SDS011;48597;49.030;1.822;2023-03-12T15:49:28;3.15;;;1.33;;
62543;SDS011;48597;49.030;1.822;2023-03-12T15:52:04;2.80;;;1.10;;
62543;SDS011;48597;49.030;1.822;2023-03-12T15:54:58;3.10;;;1.00;;
62543;SDS011;48597;49.030;1.822;2023-03-12T16:00:15;3.20;;;1.25;;
62543;SDS011;48597;49.030;1.822;2023-03-12T16:03:02;4.57;;;1.25;;
62543;SDS011;48597;49.030;1.822;2023-03-12T16:05:31;3.53;;;0.95;;
62543;SDS011;48597;49.030;1.822;2023-03-12T16:08:42;7.57;;;1.23;;
62543;SDS011;48597;49.030;1.822;2023-03-12T16:10:54;1.70;;;1.00;;
62543;SDS011;48597;49.030;1.822;2023-03-12T16:13:20;3.05;;;1.00;;
62543;SDS011;48597;49.030;1.822;2023-03-12T16:15:51;2.38;;;0.95;;
62543;SDS011;48597;49.030;1.822;2023-03-12T16:18:20;5.80;;;1.38;;
62543;SDS011;48597;49.030;1.822;2023-03-12T16:20:46;3.75;;;1.08;;
62543;SDS011;48597;49.030;1.822;2023-03-12T16:23:13;4.93;;;1.02;;
62543;SDS011;48597;49.030;1.822;2023-03-12T16:25:43;2.75;;;1.02;;
62543;SDS011;48597;49.030;1.822;2023-03-12T16:28:10;3.53;;;1.05;;
62543;SDS011;48597;49.030;1.822;2023-03-12T16:30:38;2.72;;;1.00;;
62543;SDS011;48597;49.030;1.822;2023-03-12T16:33:04;2.55;;;1.23;;
62543;SDS011;48597;49.030;1.822;2023-03-12T16:35:30;2.67;;;1.00;;
62543;SDS011;48597;49.030;1.822;2023-03-12T16:37:56;4.05;;;1.13;;
62543;SDS011;48597;49.030;1.822;2023-03-12T16:40:25;5.38;;;1.30;;
62543;SDS011;48597;49.030;1.822;2023-03-12T16:42:52;3.28;;;1.00;;
62543;SDS011;48597;49.030;1.822;2023-03-12T16:45:19;3.65;;;1.10;;
62543;SDS011;48597;49.030;1.822;2023-03-12T16:47:45;4.55;;;0.93;;
62543;SDS011;48597;49.030;1.822;2023-03-12T16:50:16;3.47;;;0.90;;